Time;durP1;ratioP1;P1;durP2;ratioP2;P2;SDS_P1;SDS_P2;PMS_P1;PMS_P2;Temp;Humidity;BMP_temperature;BMP_pressure;BME280_temperature;BME280_humidity;BME280_pressure;Samples;Min_cycle;Max_cycle;Signal;HPM_P1;HPM_P2
2022/02/14 00:00:19;;;;;;;29.35;8.93;;;6.30;99.90;;;;;;5053332;28;20025;-71
2022/02/14 00:02:45;;;;;;;19.67;9.20;;;6.30;99.90;;;;;;5053354;28;20033;-70
2022/02/14 00:05:12;;;;;;;28.08;8.98;;;6.30;99.90;;;;;;5053504;28;20028;-70
2022/02/14 00:07:38;;;;;;;16.50;7.50;;;6.40;99.90;;;;;;5053331;28;20049;-70
2022/02/14 00:10:05;;;;;;;17.95;9.00;;;6.40;99.90;;;;;;5053285;28;20036;-70
2022/02/14 00:12:31;;;;;;;19.80;9.18;;;6.40;99.90;;;;;;5053154;28;20033;-70
2022/02/14 00:14:57;;;;;;;15.93;9.48;;;6.30;99.90;;;;;;5053301;28;20025;-70
2022/02/14 00:17:23;;;;;;;20.00;8.60;;;6.30;99.90;;;;;;5053416;28;20094;-70
2022/02/14 00:19:50;;;;;;;28.85;9.20;;;6.30;99.90;;;;;;5053147;28;20025;-70
2022/02/14 00:22:21;;;;;;;21.95;8.68;;;6.30;99.90;;;;;;5053252;28;20021;-70
2022/02/14 00:24:50;;;;;;;21.50;8.85;;;6.30;99.90;;;;;;5053451;28;20024;-70
2022/02/14 00:27:16;;;;;;;25.77;8.27;;;6.40;99.90;;;;;;5053696;28;20021;-70
2022/02/14 00:29:42;;;;;;;18.25;8.68;;;6.50;99.90;;;;;;5053424;28;20056;-70
2022/02/14 00:32:07;;;;;;;29.15;9.23;;;6.50;99.90;;;;;;5053017;28;20466;-70
2022/02/14 00:34:33;;;;;;;28.48;9.48;;;6.50;99.90;;;;;;5053035;28;20025;-70
2022/02/14 00:36:58;;;;;;;20.33;8.15;;;6.50;99.90;;;;;;5053030;28;20523;-70
2022/02/14 00:39:24;;;;;;;22.35;9.32;;;6.50;99.90;;;;;;5052996;28;20028;-70
2022/02/14 00:41:49;;;;;;;28.23;8.10;;;6.60;99.90;;;;;;5053048;28;20083;-70
2022/02/14 00:44:15;;;;;;;17.60;9.15;;;6.60;99.90;;;;;;5053015;28;20029;-70
2022/02/14 00:46:40;;;;;;;17.27;8.95;;;6.70;99.90;;;;;;5052984;28;20052;-70
2022/02/14 00:49:06;;;;;;;26.25;7.70;;;6.80;99.90;;;;;;5052972;28;20044;-70
2022/02/14 00:51:31;;;;;;;17.45;8.27;;;6.80;99.90;;;;;;5052998;28;20040;-70
2022/02/14 00:53:57;;;;;;;16.73;7.90;;;6.70;99.90;;;;;;5052856;28;20079;-70
2022/02/14 00:56:22;;;;;;;19.17;9.02;;;6.80;99.90;;;;;;5052996;28;20035;-70
2022/02/14 00:58:48;;;;;;;17.08;7.70;;;6.90;99.90;;;;;;5052789;28;20032;-70
2022/02/14 01:01:14;;;;;;;25.75;8.68;;;6.90;99.90;;;;;;5052727;28;20385;-70
2022/02/14 01:03:39;;;;;;;25.77;8.20;;;7.00;99.90;;;;;;5052781;28;20025;-70
2022/02/14 01:06:05;;;;;;;22.55;8.57;;;7.00;99.90;;;;;;5052775;28;20017;-70
2022/02/14 01:08:30;;;;;;;25.23;9.63;;;6.90;99.90;;;;;;5052785;28;20021;-70
2022/02/14 01:10:56;;;;;;;16.45;7.40;;;6.90;99.90;;;;;;5052692;28;20029;-70
2022/02/14 01:13:21;;;;;;;27.77;7.80;;;7.00;99.90;;;;;;5052919;28;20397;-70
2022/02/14 01:15:47;;;;;;;23.45;7.72;;;7.00;99.90;;;;;;5052700;28;20037;-70
2022/02/14 01:18:13;;;;;;;22.20;7.70;;;7.00;99.90;;;;;;5052696;28;20025;-70
2022/02/14 01:20:38;;;;;;;23.10;8.10;;;7.10;99.90;;;;;;5053062;28;20072;-70
2022/02/14 01:23:04;;;;;;;22.95;7.60;;;7.10;99.90;;;;;;5052878;28;20104;-70
2022/02/14 01:25:29;;;;;;;16.98;7.38;;;7.10;99.90;;;;;;5052608;28;20049;-70
2022/02/14 01:27:55;;;;;;;20.05;7.32;;;7.00;99.90;;;;;;5034767;28;20028;-70
2022/02/14 01:30:21;;;;;;;17.00;7.25;;;7.00;99.90;;;;;;5054380;28;20104;-70
2022/02/14 01:32:46;;;;;;;13.10;6.90;;;6.90;99.90;;;;;;5056114;28;20071;-70
2022/02/14 01:35:12;;;;;;;16.25;7.72;;;7.00;99.90;;;;;;5056101;28;20029;-70
2022/02/14 01:37:39;;;;;;;16.83;7.22;;;7.00;99.90;;;;;;5056643;28;20104;-70
2022/02/14 01:40:09;;;;;;;18.92;6.55;;;7.00;99.90;;;;;;5055984;28;20021;-71
2022/02/14 01:42:35;;;;;;;17.13;6.72;;;7.10;99.90;;;;;;5055980;28;20029;-71
2022/02/14 01:45:01;;;;;;;18.83;7.43;;;7.00;99.90;;;;;;5056182;28;20036;-71
2022/02/14 01:47:27;;;;;;;18.92;7.95;;;7.00;99.90;;;;;;5055903;28;20052;-70
2022/02/14 01:49:54;;;;;;;19.02;8.25;;;7.00;99.90;;;;;;5055900;28;20060;-71
2022/02/14 01:52:22;;;;;;;26.25;7.53;;;7.00;99.90;;;;;;5055662;28;20037;-71
2022/02/14 01:54:49;;;;;;;26.67;7.40;;;7.10;99.90;;;;;;5056022;28;20466;-71
2022/02/14 01:57:16;;;;;;;18.58;7.97;;;7.10;99.90;;;;;;5055683;28;20025;-70
2022/02/14 01:59:43;;;;;;;14.70;7.18;;;7.10;99.90;;;;;;5055630;28;20029;-70
2022/02/14 02:02:09;;;;;;;19.85;7.53;;;7.10;99.90;;;;;;5055646;28;20024;-70
2022/02/14 02:04:35;;;;;;;15.88;5.93;;;7.10;99.90;;;;;;5055538;28;20024;-70
2022/02/14 02:07:03;;;;;;;15.98;6.18;;;7.20;99.90;;;;;;5055559;28;20025;-70
2022/02/14 02:09:30;;;;;;;15.73;6.55;;;7.20;99.90;;;;;;5055466;28;20032;-70
2022/02/14 02:14:40;;;;;;;17.15;6.65;;;7.10;99.90;;;;;;5055503;28;20032;-71
2022/02/14 02:17:05;;;;;;;18.70;6.88;;;7.00;99.90;;;;;;5055865;28;20108;-70
2022/02/14 02:19:31;;;;;;;17.45;7.57;;;7.00;99.90;;;;;;5055211;28;20087;-70
2022/02/14 02:21:57;;;;;;;18.42;6.75;;;7.00;99.90;;;;;;5055187;28;20098;-70
2022/02/14 02:24:23;;;;;;;19.85;6.32;;;7.00;99.90;;;;;;5055792;28;20033;-70
2022/02/14 02:27:00;;;;;;;20.13;7.07;;;7.00;99.90;;;;;;5055170;28;20025;-70
2022/02/14 02:29:27;;;;;;;16.52;7.22;;;7.10;99.90;;;;;;5055143;28;20017;-70
2022/02/14 02:31:53;;;;;;;25.27;7.22;;;7.00;99.90;;;;;;5055048;28;20025;-70
2022/02/14 02:34:19;;;;;;;32.55;8.00;;;7.10;99.90;;;;;;5055045;28;20021;-70
2022/02/14 02:36:50;;;;;;;20.48;7.75;;;7.10;99.90;;;;;;5054970;28;20025;-70
2022/02/14 02:39:17;;;;;;;21.70;7.15;;;7.10;99.90;;;;;;5054830;28;20074;-70
2022/02/14 02:41:42;;;;;;;25.98;7.35;;;7.10;99.90;;;;;;5053696;28;20052;-70
2022/02/14 02:44:09;;;;;;;20.10;6.88;;;7.00;99.90;;;;;;5054885;28;20045;-70
2022/02/14 02:46:34;;;;;;;18.58;6.82;;;7.10;99.90;;;;;;5054783;28;20083;-70
2022/02/14 02:49:17;;;;;;;18.13;6.13;;;7.00;99.90;;;;;;5054694;28;20021;-70
2022/02/14 02:51:47;;;;;;;17.38;6.68;;;7.00;99.90;;;;;;5054613;28;20032;-70
2022/02/14 02:54:13;;;;;;;22.27;6.90;;;7.10;99.90;;;;;;5055472;28;20032;-70
2022/02/14 02:56:41;;;;;;;19.10;6.72;;;7.20;99.90;;;;;;5054571;28;20429;-70
2022/02/14 02:59:08;;;;;;;17.80;6.03;;;7.10;99.90;;;;;;5054463;28;20423;-71
2022/02/14 03:01:34;;;;;;;17.52;6.80;;;7.20;99.90;;;;;;5054433;28;20017;-71
2022/02/14 03:04:03;;;;;;;21.92;6.85;;;7.20;99.90;;;;;;5054648;28;20386;-70
2022/02/14 03:06:29;;;;;;;17.83;6.82;;;7.20;99.90;;;;;;5036541;28;20048;-70
2022/02/14 03:08:54;;;;;;;14.82;5.97;;;7.20;99.90;;;;;;5054346;28;20021;-70
2022/02/14 03:11:21;;;;;;;25.52;7.00;;;7.30;99.90;;;;;;5054167;28;20025;-70
2022/02/14 03:13:48;;;;;;;16.40;6.80;;;7.30;99.90;;;;;;5054193;28;20028;-70
2022/02/14 03:16:14;;;;;;;18.42;6.50;;;7.20;99.90;;;;;;5054196;28;20025;-70
2022/02/14 03:18:41;;;;;;;17.73;6.72;;;7.20;99.90;;;;;;5054137;28;20446;-70
2022/02/14 03:21:07;;;;;;;8.43;5.20;;;7.30;99.90;;;;;;5053957;28;20068;-70
2022/02/14 03:23:34;;;;;;;12.48;6.45;;;7.30;99.90;;;;;;5054065;28;20053;-70
2022/02/14 03:25:59;;;;;;;15.15;5.93;;;7.30;99.90;;;;;;5053994;28;20024;-70
2022/02/14 03:28:26;;;;;;;16.30;6.85;;;7.30;99.90;;;;;;5036120;28;20524;-71
2022/02/14 03:30:51;;;;;;;13.65;5.65;;;7.40;99.90;;;;;;5053903;28;20390;-71
2022/02/14 03:33:17;;;;;;;14.73;6.10;;;7.40;99.90;;;;;;5054069;28;20054;-70
2022/02/14 03:35:42;;;;;;;19.77;6.65;;;7.40;99.90;;;;;;5054070;28;20060;-70
2022/02/14 03:38:08;;;;;;;13.48;5.50;;;7.50;99.90;;;;;;5053784;28;20032;-71
2022/02/14 03:40:35;;;;;;;18.52;7.28;;;7.50;99.90;;;;;;5053568;28;20108;-71
2022/02/14 03:43:03;;;;;;;16.83;6.05;;;7.50;99.90;;;;;;5053947;28;20021;-70
2022/02/14 03:45:30;;;;;;;24.80;6.80;;;7.60;99.90;;;;;;5053700;28;20060;-70
2022/02/14 03:47:56;;;;;;;15.18;5.63;;;7.60;99.90;;;;;;5053909;28;20477;-70
2022/02/14 03:50:22;;;;;;;21.20;7.25;;;7.50;99.90;;;;;;5035610;28;20033;-70
2022/02/14 03:52:48;;;;;;;9.48;5.60;;;7.60;99.90;;;;;;5053165;28;20040;-70
2022/02/14 03:55:13;;;;;;;16.33;5.75;;;7.60;99.90;;;;;;5053504;28;20483;-70
2022/02/14 03:57:39;;;;;;;19.02;5.63;;;7.60;99.90;;;;;;5053472;28;20102;-71
2022/02/14 04:00:08;;;;;;;19.05;5.32;;;7.60;99.90;;;;;;5053676;28;20065;-71
2022/02/14 04:02:34;;;;;;;19.98;5.88;;;7.60;99.90;;;;;;5053149;28;20107;-71
2022/02/14 04:05:01;;;;;;;20.67;6.70;;;7.60;99.90;;;;;;5053404;28;20394;-71
2022/02/14 04:07:26;;;;;;;9.10;5.50;;;7.60;99.90;;;;;;5053932;28;20017;-71
2022/02/14 04:09:52;;;;;;;16.25;5.70;;;7.70;99.90;;;;;;5053332;28;20021;-71
2022/02/14 04:12:18;;;;;;;18.80;5.55;;;7.70;99.90;;;;;;5053250;28;20040;-71
2022/02/14 04:14:43;;;;;;;12.80;5.18;;;7.70;99.90;;;;;;5053348;28;20032;-71
2022/02/14 04:17:09;;;;;;;14.32;5.88;;;7.70;99.90;;;;;;5053269;28;20083;-71
2022/02/14 04:19:34;;;;;;;12.23;5.75;;;7.70;99.90;;;;;;5053198;28;20032;-71
2022/02/14 04:22:00;;;;;;;18.58;5.70;;;7.80;99.90;;;;;;5053260;28;20017;-70
2022/02/14 04:24:25;;;;;;;9.25;5.53;;;7.80;99.90;;;;;;5053213;28;20100;-70
2022/02/14 04:26:51;;;;;;;13.48;5.30;;;7.80;99.90;;;;;;5053163;28;20033;-70
2022/02/14 04:29:17;;;;;;;19.00;5.93;;;7.80;99.90;;;;;;5053711;28;20021;-71
2022/02/14 04:31:42;;;;;;;13.60;5.28;;;7.80;99.90;;;;;;5053039;28;20549;-71
2022/02/14 04:34:08;;;;;;;18.83;5.47;;;7.90;99.90;;;;;;5053120;28;20575;-70
2022/02/14 04:36:33;;;;;;;13.40;5.30;;;7.80;99.90;;;;;;5053081;28;20538;-70
2022/02/14 04:38:59;;;;;;;23.15;5.38;;;7.90;99.90;;;;;;5053256;28;20028;-70
2022/02/14 04:41:24;;;;;;;13.20;5.40;;;7.90;99.90;;;;;;5052956;28;20071;-71
2022/02/14 04:43:52;;;;;;;20.25;5.35;;;7.90;99.90;;;;;;5052973;28;20071;-71
2022/02/14 04:46:18;;;;;;;13.48;5.10;;;7.90;99.90;;;;;;5053271;28;20027;-71
2022/02/14 04:48:44;;;;;;;18.33;4.80;;;7.90;99.90;;;;;;5052999;28;20370;-71
2022/02/14 04:51:11;;;;;;;23.40;5.50;;;7.90;99.90;;;;;;5052791;28;20029;-70
2022/02/14 04:53:37;;;;;;;19.42;5.38;;;7.90;99.90;;;;;;5052925;28;20100;-70
2022/02/14 04:56:03;;;;;;;16.58;5.13;;;7.90;99.90;;;;;;5053161;28;20055;-70
2022/02/14 04:58:28;;;;;;;13.57;4.85;;;7.70;99.90;;;;;;5052863;28;20036;-70
2022/02/14 05:00:54;;;;;;;13.80;5.38;;;7.70;99.90;;;;;;5052915;28;20036;-70
2022/02/14 05:03:19;;;;;;;13.18;4.97;;;7.70;99.90;;;;;;5053117;28;20028;-70
2022/02/14 05:05:45;;;;;;;17.50;5.40;;;7.70;99.90;;;;;;5055633;28;20036;-71
2022/02/14 05:08:10;;;;;;;13.93;5.40;;;7.70;99.90;;;;;;5056750;28;20025;-71
2022/02/14 05:10:36;;;;;;;18.58;5.18;;;7.80;99.90;;;;;;5056550;28;20028;-70
2022/02/14 05:13:01;;;;;;;16.63;5.38;;;7.80;99.90;;;;;;5056566;28;20029;-70
2022/02/14 05:15:27;;;;;;;13.07;5.00;;;7.80;99.90;;;;;;5056874;28;20029;-70
2022/02/14 05:17:53;;;;;;;13.38;4.55;;;7.80;99.90;;;;;;5056495;28;20393;-70
2022/02/14 05:20:18;;;;;;;16.10;4.68;;;7.90;99.90;;;;;;5056613;28;20037;-70
2022/02/14 05:22:44;;;;;;;25.30;6.13;;;7.80;99.90;;;;;;5056523;28;20025;-70
2022/02/14 05:25:09;;;;;;;15.60;5.40;;;7.90;99.90;;;;;;5056300;28;20033;-70
2022/02/14 05:27:35;;;;;;;12.65;5.10;;;7.80;99.90;;;;;;5056555;28;20028;-70
2022/02/14 05:30:02;;;;;;;17.55;6.72;;;7.80;99.90;;;;;;5056235;28;20091;-70
2022/02/14 05:32:27;;;;;;;14.15;5.15;;;7.80;99.90;;;;;;5056127;28;20031;-70
2022/02/14 05:34:53;;;;;;;8.02;4.47;;;7.80;99.90;;;;;;5056410;28;20437;-70
2022/02/14 05:37:19;;;;;;;14.55;5.30;;;7.80;99.90;;;;;;5056399;28;20028;-70
2022/02/14 05:39:46;;;;;;;15.00;5.32;;;7.80;99.90;;;;;;5056178;28;20496;-70
2022/02/14 05:42:12;;;;;;;15.18;5.20;;;7.80;99.90;;;;;;5055969;28;20055;-70
2022/02/14 05:44:38;;;;;;;14.18;4.93;;;7.70;99.90;;;;;;5055924;28;20029;-70
2022/02/14 05:47:04;;;;;;;20.60;5.78;;;7.70;99.90;;;;;;5055940;28;20108;-70
2022/02/14 05:49:29;;;;;;;11.65;5.05;;;7.70;99.90;;;;;;5055871;28;20074;-70
2022/02/14 05:51:55;;;;;;;19.38;4.78;;;7.70;99.90;;;;;;5055580;28;20571;-70
2022/02/14 05:54:21;;;;;;;15.68;5.07;;;7.80;99.90;;;;;;5056364;28;20409;-70
2022/02/14 05:56:46;;;;;;;14.57;5.13;;;7.80;99.90;;;;;;5055756;28;20033;-70
2022/02/14 05:59:12;;;;;;;13.65;4.82;;;7.80;99.90;;;;;;5055620;28;20021;-70
2022/02/14 06:01:37;;;;;;;16.20;4.80;;;7.90;99.90;;;;;;5055517;28;20093;-70
2022/02/14 06:04:03;;;;;;;14.95;5.10;;;8.00;99.90;;;;;;5056146;28;20470;-70
2022/02/14 06:06:29;;;;;;;12.93;4.93;;;8.00;99.90;;;;;;5055709;28;20095;-70
2022/02/14 06:08:54;;;;;;;13.15;4.93;;;8.00;99.90;;;;;;5055455;28;20017;-71
2022/02/14 06:11:21;;;;;;;10.75;5.07;;;8.00;99.90;;;;;;5055413;28;20025;-70
2022/02/14 06:13:47;;;;;;;18.15;4.80;;;8.00;99.90;;;;;;5055484;28;20028;-70
2022/02/14 06:16:12;;;;;;;14.80;4.90;;;8.10;99.90;;;;;;5055185;28;20493;-70
2022/02/14 06:18:38;;;;;;;17.25;5.18;;;8.10;99.90;;;;;;5055362;28;20060;-70
2022/02/14 06:21:04;;;;;;;17.83;5.32;;;8.10;99.90;;;;;;5055165;28;20477;-70
2022/02/14 06:23:29;;;;;;;17.05;5.28;;;8.10;99.90;;;;;;5055284;28;20025;-70
2022/02/14 06:25:55;;;;;;;13.45;5.72;;;8.10;99.90;;;;;;5055216;28;20057;-70
2022/02/14 06:28:21;;;;;;;17.23;4.95;;;8.00;99.90;;;;;;5055174;28;20381;-70
2022/02/14 06:30:46;;;;;;;14.48;5.18;;;8.00;99.90;;;;;;5055357;28;20385;-70
2022/02/14 06:33:14;;;;;;;13.90;5.47;;;7.90;99.90;;;;;;5055169;28;20048;-70
2022/02/14 06:35:41;;;;;;;18.05;5.88;;;7.90;99.90;;;;;;5055289;28;20021;-71
2022/02/14 06:38:07;;;;;;;21.48;5.93;;;7.70;99.90;;;;;;5055237;28;20040;-71
2022/02/14 06:40:32;;;;;;;15.13;6.35;;;7.70;99.90;;;;;;5036916;28;20029;-70
2022/02/14 06:42:58;;;;;;;13.80;5.05;;;7.60;99.90;;;;;;5054748;28;20032;-71
2022/02/14 06:45:24;;;;;;;14.10;5.15;;;7.50;99.90;;;;;;5054833;28;20031;-71
2022/02/14 06:47:49;;;;;;;13.90;6.18;;;7.40;99.90;;;;;;5055065;28;20354;-71
2022/02/14 06:50:17;;;;;;;23.85;5.43;;;7.30;99.90;;;;;;5054907;28;20108;-70
2022/02/14 06:52:43;;;;;;;14.10;5.20;;;7.40;99.90;;;;;;5055510;28;20436;-71
2022/02/14 06:55:09;;;;;;;14.27;4.68;;;7.40;99.90;;;;;;5054631;28;20025;-71
2022/02/14 06:57:36;;;;;;;10.73;4.90;;;7.40;99.90;;;;;;5054585;28;20056;-71
2022/02/14 07:00:04;;;;;;;26.02;6.15;;;7.40;99.90;;;;;;5054455;28;20025;-70
2022/02/14 07:02:29;;;;;;;18.83;5.88;;;7.40;99.90;;;;;;5054477;28;20100;-70
2022/02/14 07:04:55;;;;;;;17.98;6.05;;;7.50;99.90;;;;;;5036536;28;20498;-71
2022/02/14 07:07:21;;;;;;;17.35;5.30;;;7.40;99.90;;;;;;5054388;28;20385;-71
2022/02/14 07:09:47;;;;;;;15.48;5.18;;;7.50;99.90;;;;;;5054874;28;20025;-71
2022/02/14 07:12:13;;;;;;;10.05;4.50;;;7.50;99.90;;;;;;5054202;28;20040;-70
2022/02/14 07:14:38;;;;;;;20.92;5.25;;;7.50;99.90;;;;;;5036407;28;20029;-70
2022/02/14 07:17:04;;;;;;;12.85;4.78;;;7.50;99.90;;;;;;5054791;28;20033;-70
2022/02/14 07:19:29;;;;;;;14.88;5.57;;;7.60;99.90;;;;;;5054427;28;20417;-70
2022/02/14 07:21:55;;;;;;;14.57;5.13;;;7.50;99.90;;;;;;5054009;28;20100;-70
2022/02/14 07:24:21;;;;;;;15.38;5.18;;;7.60;99.90;;;;;;5054367;28;20025;-71
2022/02/14 07:26:46;;;;;;;16.17;4.53;;;7.60;99.90;;;;;;5053808;28;20021;-71
2022/02/14 07:29:12;;;;;;;15.40;6.18;;;7.60;99.90;;;;;;5053558;28;20032;-71
2022/02/14 07:31:37;;;;;;;18.80;4.97;;;7.70;99.90;;;;;;5053836;28;20082;-71
2022/02/14 07:34:03;;;;;;;15.73;4.32;;;7.70;99.90;;;;;;5054172;28;20056;-71
2022/02/14 07:36:29;;;;;;;16.17;5.80;;;7.80;99.90;;;;;;5054173;28;20492;-71
2022/02/14 07:38:54;;;;;;;19.08;5.32;;;7.80;99.90;;;;;;5053801;28;20021;-71
2022/02/14 07:41:20;;;;;;;17.02;5.65;;;7.90;99.90;;;;;;5053593;28;20036;-71
2022/02/14 07:43:46;;;;;;;17.98;5.07;;;7.80;99.90;;;;;;5053778;28;20025;-71
2022/02/14 07:46:11;;;;;;;15.95;5.45;;;7.90;99.90;;;;;;5053677;28;20024;-71
2022/02/14 07:48:39;;;;;;;14.13;4.85;;;7.90;99.90;;;;;;5053635;28;20025;-71
2022/02/14 07:51:04;;;;;;;18.30;4.78;;;8.00;99.90;;;;;;5053352;28;20029;-71
2022/02/14 07:53:30;;;;;;;12.40;4.60;;;8.10;99.90;;;;;;5053607;28;20035;-71
2022/02/14 07:55:55;;;;;;;18.48;4.55;;;8.10;99.90;;;;;;5053547;28;20068;-72
2022/02/14 07:58:21;;;;;;;14.40;4.80;;;8.10;99.90;;;;;;5053541;28;20021;-71
2022/02/14 08:00:47;;;;;;;15.02;4.70;;;8.20;99.90;;;;;;5053324;28;20025;-71
2022/02/14 08:03:12;;;;;;;20.85;5.90;;;8.20;99.90;;;;;;5053705;28;20025;-71
2022/02/14 08:05:38;;;;;;;13.93;4.68;;;8.30;99.90;;;;;;5053486;28;20040;-70
2022/02/14 08:08:03;;;;;;;15.25;4.90;;;8.30;99.90;;;;;;5053480;28;20060;-71
2022/02/14 08:10:29;;;;;;;13.75;4.60;;;8.30;99.90;;;;;;5053387;28;20060;-71
2022/02/14 08:12:55;;;;;;;16.73;4.30;;;8.30;99.90;;;;;;5053273;28;20473;-71
2022/02/14 08:15:20;;;;;;;17.70;5.22;;;8.40;99.90;;;;;;5053883;28;20103;-71
2022/02/14 08:17:48;;;;;;;18.33;4.65;;;8.30;99.90;;;;;;5053274;28;20485;-71
2022/02/14 08:20:14;;;;;;;11.35;4.25;;;8.30;99.90;;;;;;5053204;28;20075;-71
2022/02/14 08:22:39;;;;;;;10.60;4.70;;;8.40;99.90;;;;;;5053153;28;20033;-71
2022/02/14 08:25:05;;;;;;;17.60;4.82;;;8.40;99.90;;;;;;5053478;28;20465;-71
2022/02/14 08:27:31;;;;;;;14.43;4.57;;;8.40;99.90;;;;;;5053321;28;20035;-71
2022/02/14 08:29:57;;;;;;;19.17;4.32;;;8.50;99.90;;;;;;5053206;28;20444;-71
2022/02/14 08:32:23;;;;;;;19.13;5.22;;;8.50;99.90;;;;;;5053060;28;20025;-71
2022/02/14 08:34:49;;;;;;;19.35;5.32;;;8.50;99.90;;;;;;5035583;28;20432;-71
2022/02/14 08:37:15;;;;;;;15.30;4.45;;;8.50;99.90;;;;;;5053064;28;20033;-71
2022/02/14 08:39:40;;;;;;;16.95;4.80;;;8.50;99.90;;;;;;5055610;28;20392;-71
2022/02/14 08:42:07;;;;;;;13.35;5.20;;;8.60;99.90;;;;;;5057210;28;20025;-71
2022/02/14 08:44:33;;;;;;;11.02;4.50;;;8.60;99.90;;;;;;5057412;28;20021;-71
2022/02/14 08:47:01;;;;;;;14.13;4.25;;;8.60;99.90;;;;;;5057117;28;20025;-71
2022/02/14 08:49:28;;;;;;;10.27;4.40;;;8.60;99.90;;;;;;5057001;28;20029;-71
2022/02/14 08:51:54;;;;;;;14.10;4.65;;;8.60;99.90;;;;;;5056929;28;20477;-71
2022/02/14 08:54:21;;;;;;;14.20;4.45;;;8.60;99.90;;;;;;5057534;28;20036;-70
2022/02/14 08:56:46;;;;;;;15.45;4.68;;;8.50;99.90;;;;;;5056958;28;20120;-70
2022/02/14 08:59:19;;;;;;;15.63;4.60;;;8.60;99.90;;;;;;5056825;28;20141;-70
2022/02/14 09:01:46;;;;;;;20.98;5.03;;;8.60;99.90;;;;;;5056808;28;20028;-70
2022/02/14 09:04:12;;;;;;;12.75;5.35;;;8.60;99.90;;;;;;5056806;28;20096;-70
2022/02/14 09:06:37;;;;;;;15.27;4.35;;;8.60;99.90;;;;;;5056996;28;20056;-70
2022/02/14 09:09:03;;;;;;;13.00;4.55;;;8.60;99.90;;;;;;5056716;28;20017;-70
2022/02/14 09:11:29;;;;;;;13.20;4.55;;;8.60;99.90;;;;;;5056562;28;20055;-70
2022/02/14 09:13:54;;;;;;;11.15;4.40;;;8.60;99.90;;;;;;5056556;28;20464;-71
2022/02/14 09:16:20;;;;;;;13.38;4.18;;;8.70;99.90;;;;;;5056524;28;20025;-70
2022/02/14 09:18:45;;;;;;;14.27;4.80;;;8.80;99.90;;;;;;5056499;28;20033;-70
2022/02/14 09:21:11;;;;;;;13.95;4.45;;;8.90;99.90;;;;;;5056423;28;20031;-70
2022/02/14 09:23:36;;;;;;;13.52;4.65;;;8.90;99.90;;;;;;5056427;28;20017;-70
2022/02/14 09:26:03;;;;;;;13.25;3.80;;;9.00;99.90;;;;;;5056908;28;20430;-70
2022/02/14 09:28:29;;;;;;;8.63;4.78;;;9.00;99.90;;;;;;5056321;28;20048;-70
2022/02/14 09:30:55;;;;;;;13.77;4.63;;;9.00;99.90;;;;;;5056742;28;20481;-70
2022/02/14 09:33:20;;;;;;;21.10;5.13;;;9.00;99.90;;;;;;5056270;28;20029;-70
2022/02/14 09:35:47;;;;;;;16.63;4.60;;;9.00;99.90;;;;;;5056173;28;20025;-70
2022/02/14 09:38:13;;;;;;;16.25;5.00;;;9.00;99.90;;;;;;5056124;28;20028;-70
2022/02/14 09:40:38;;;;;;;12.85;4.60;;;9.00;99.90;;;;;;5056232;28;20029;-70
2022/02/14 09:43:05;;;;;;;15.55;5.10;;;9.00;99.90;;;;;;5056028;28;20087;-70
2022/02/14 09:45:31;;;;;;;13.65;3.80;;;9.00;99.90;;;;;;5055997;28;20025;-70
2022/02/14 09:48:05;;;;;;;15.15;5.43;;;9.00;99.90;;;;;;5055951;28;20063;-71
2022/02/14 09:50:33;;;;;;;7.93;4.07;;;9.00;99.90;;;;;;5055128;28;20432;-71
2022/02/14 09:53:02;;;;;;;13.85;5.15;;;9.10;99.90;;;;;;5056311;28;20036;-70
2022/02/14 09:55:28;;;;;;;11.63;3.80;;;9.20;99.90;;;;;;5055686;28;20047;-70
2022/02/14 09:57:54;;;;;;;18.13;4.95;;;9.20;99.90;;;;;;5055823;28;20061;-70
2022/02/14 10:00:19;;;;;;;20.80;5.25;;;9.20;99.90;;;;;;5055696;28;20021;-70
2022/02/14 10:02:45;;;;;;;13.18;4.22;;;9.30;99.90;;;;;;5055658;28;20021;-70
2022/02/14 10:05:18;;;;;;;8.65;3.97;;;9.30;99.90;;;;;;5055642;28;20057;-70
2022/02/14 10:07:54;;;;;;;21.73;4.83;;;9.40;99.90;;;;;;5055627;28;20066;-70
2022/02/14 10:10:22;;;;;;;24.23;4.88;;;9.50;99.90;;;;;;5056153;28;20032;-70
2022/02/14 10:12:55;;;;;;;18.25;4.68;;;9.60;99.90;;;;;;5055418;28;20028;-70
2022/02/14 10:15:23;;;;;;;17.88;4.57;;;9.70;99.90;;;;;;5055519;28;20032;-70
2022/02/14 10:17:53;;;;;;;13.38;4.63;;;9.90;99.90;;;;;;5055754;28;20028;-70
2022/02/14 10:20:21;;;;;;;14.13;4.22;;;9.90;99.90;;;;;;5055231;28;20025;-70
2022/02/14 10:22:53;;;;;;;15.10;4.15;;;10.00;99.90;;;;;;5055045;28;20037;-70
2022/02/14 10:25:47;;;;;;;14.18;4.40;;;10.10;99.90;;;;;;5055248;28;20147;-70
2022/02/14 10:28:29;;;;;;;10.27;4.93;;;10.20;99.90;;;;;;5034179;28;20033;-70
2022/02/14 10:30:59;;;;;;;7.97;4.05;;;10.20;99.90;;;;;;5055351;28;20039;-70
2022/02/14 10:33:47;;;;;;;13.43;4.50;;;10.20;99.90;;;;;;5055416;28;20025;-70
2022/02/14 10:36:24;;;;;;;19.38;4.30;;;10.20;99.90;;;;;;5037174;28;20053;-70
2022/02/14 10:38:49;;;;;;;12.05;4.03;;;10.10;99.90;;;;;;5055051;28;20432;-70
2022/02/14 10:41:15;;;;;;;14.85;4.40;;;10.10;99.90;;;;;;5054783;28;20025;-70
2022/02/14 10:43:41;;;;;;;19.90;4.40;;;10.30;99.90;;;;;;5055472;28;20025;-70
2022/02/14 10:46:08;;;;;;;12.90;4.35;;;10.50;99.90;;;;;;5055082;28;20047;-70
2022/02/14 10:48:40;;;;;;;13.30;4.57;;;10.50;99.90;;;;;;5054951;28;20496;-70
2022/02/14 10:51:06;;;;;;;13.45;4.55;;;10.60;99.90;;;;;;5054583;28;20070;-70
2022/02/14 10:53:45;;;;;;;13.10;4.63;;;10.70;99.90;;;;;;5055026;28;20033;-70
2022/02/14 10:56:13;;;;;;;10.15;4.40;;;10.70;99.90;;;;;;5054648;28;20021;-70
2022/02/14 10:58:39;;;;;;;10.60;4.10;;;10.60;99.90;;;;;;5054622;28;20124;-70
2022/02/14 11:01:09;;;;;;;14.75;4.50;;;10.60;99.90;;;;;;5054439;28;20036;-70
2022/02/14 11:03:37;;;;;;;10.80;4.25;;;10.60;99.90;;;;;;5054149;28;20028;-70
2022/02/14 11:06:02;;;;;;;16.65;4.78;;;10.60;99.90;;;;;;5054437;28;20408;-70
2022/02/14 11:08:31;;;;;;;20.02;4.45;;;10.60;99.90;;;;;;5054928;28;20024;-70
2022/02/14 11:10:57;;;;;;;10.60;4.13;;;10.60;99.90;;;;;;5054276;28;20025;-70
2022/02/14 11:13:25;;;;;;;19.45;4.57;;;10.60;99.90;;;;;;5054890;28;20104;-70
2022/02/14 11:15:53;;;;;;;12.10;4.03;;;10.60;99.90;;;;;;5054305;28;20107;-70
2022/02/14 11:18:21;;;;;;;10.38;4.28;;;10.50;99.90;;;;;;5054554;28;20029;-70
2022/02/14 11:20:49;;;;;;;11.15;4.13;;;10.40;99.90;;;;;;5054038;28;20108;-70
2022/02/14 11:23:17;;;;;;;12.30;3.90;;;10.50;99.90;;;;;;5036238;28;20477;-70
2022/02/14 11:25:49;;;;;;;7.72;3.22;;;10.50;99.90;;;;;;5054113;28;20017;-70
2022/02/14 11:28:34;;;;;;;13.85;4.13;;;10.60;99.90;;;;;;5054579;28;20036;-71
2022/02/14 11:31:19;;;;;;;6.30;3.70;;;10.60;99.90;;;;;;5054184;28;20025;-70
2022/02/14 11:33:56;;;;;;;10.88;4.28;;;10.60;99.90;;;;;;5054520;28;20441;-70
2022/02/14 11:36:23;;;;;;;17.63;5.38;;;10.70;99.90;;;;;;5054258;28;20056;-70
2022/02/14 11:38:55;;;;;;;12.00;4.47;;;10.60;99.90;;;;;;5053857;28;20056;-70
2022/02/14 11:41:40;;;;;;;9.45;4.70;;;10.60;99.90;;;;;;5053893;28;20119;-70
2022/02/14 11:44:11;;;;;;;14.35;3.67;;;10.60;99.90;;;;;;5053733;28;20028;-70
2022/02/14 11:46:42;;;;;;;7.63;3.72;;;10.50;99.90;;;;;;5053752;28;20087;-70
2022/02/14 11:49:08;;;;;;;13.00;4.05;;;10.50;99.90;;;;;;5053702;28;20413;-70
2022/02/14 11:51:39;;;;;;;8.60;3.63;;;10.40;99.90;;;;;;5053480;28;20025;-70
2022/02/14 11:54:26;;;;;;;7.85;3.13;;;10.20;99.90;;;;;;5053872;28;20025;-71
2022/02/14 11:56:51;;;;;;;14.32;4.35;;;10.20;99.90;;;;;;5053785;28;20021;-70
2022/02/14 11:59:27;;;;;;;12.07;3.72;;;10.10;99.90;;;;;;5053447;28;20050;-70
2022/02/14 12:01:52;;;;;;;15.15;6.03;;;10.00;99.90;;;;;;5035610;28;20112;-70
2022/02/14 12:04:33;;;;;;;16.77;4.47;;;9.80;99.90;;;;;;5053471;28;20049;-70
2022/02/14 12:07:23;;;;;;;17.92;4.60;;;9.40;99.90;;;;;;5053683;28;20478;-70
2022/02/14 12:09:57;;;;;;;16.15;4.35;;;8.90;99.90;;;;;;5035523;28;20481;-70
2022/02/14 12:12:45;;;;;;;20.00;5.78;;;8.50;99.90;;;;;;5053311;28;20029;-70
2022/02/14 12:20:40;;;;;;;27.23;4.50;;;8.10;99.90;;;;;;5053482;28;20116;-70
2022/02/14 12:23:07;;;;;;;23.73;5.47;;;8.10;99.90;;;;;;5053369;28;20488;-70
2022/02/14 12:25:34;;;;;;;22.83;4.97;;;8.00;99.90;;;;;;5053223;28;20025;-71
2022/02/14 12:28:07;;;;;;;19.63;4.50;;;8.10;99.90;;;;;;5053213;28;20074;-71
2022/02/14 12:30:33;;;;;;;25.60;5.00;;;8.20;99.90;;;;;;5053425;28;20496;-71
2022/02/14 12:33:06;;;;;;;19.42;4.13;;;8.20;99.90;;;;;;5053166;28;20264;-71
2022/02/14 12:35:35;;;;;;;24.70;4.72;;;8.20;99.90;;;;;;5053424;28;20378;-70
2022/02/14 12:38:02;;;;;;;15.30;4.15;;;8.30;99.90;;;;;;5053047;28;20044;-70
2022/02/14 12:41:05;;;;;;;16.70;3.70;;;8.40;99.90;;;;;;5035121;28;20025;-71
2022/02/14 12:43:40;;;;;;;32.83;4.78;;;8.40;99.90;;;;;;4953094;29;20034;-70
2022/02/14 12:46:15;;;;;;;27.35;4.10;;;8.40;99.90;;;;;;5040394;28;20029;-70
2022/02/14 12:48:43;;;;;;;29.02;5.53;;;8.50;99.90;;;;;;5053251;28;20017;-70
2022/02/14 12:51:30;;;;;;;21.48;4.47;;;8.60;99.90;;;;;;5052748;28;20040;-70
2022/02/14 12:54:01;;;;;;;29.65;5.15;;;8.70;99.90;;;;;;5052909;28;20025;-70